Time;durP1;ratioP1;P1;durP2;ratioP2;P2;SDS_P1;SDS_P2;PMS_P1;PMS_P2;Temp;Humidity;BMP_temperature;BMP_pressure;BME280_temperature;BME280_humidity;BME280_pressure;Samples;Min_cycle;Max_cycle;Signal;HPM_P1;HPM_P2
2021/03/18 00:00:41;;;;;;;27.93;10.63;;;1.20;99.90;;;;;;5043870;28;20044;-70
2021/03/18 00:03:07;;;;;;;18.50;9.43;;;1.20;99.90;;;;;;5039371;28;20049;-70
2021/03/18 00:05:33;;;;;;;22.07;10.33;;;1.20;99.90;;;;;;5044453;28;20131;-70
2021/03/18 00:08:01;;;;;;;19.83;9.33;;;1.10;99.90;;;;;;5045002;28;20049;-70
2021/03/18 00:10:28;;;;;;;18.53;9.17;;;1.30;99.90;;;;;;5044744;28;20059;-70
2021/03/18 00:12:54;;;;;;;25.73;10.40;;;1.30;99.90;;;;;;5044144;28;20133;-70
2021/03/18 00:15:23;;;;;;;19.50;8.53;;;1.10;99.90;;;;;;5046107;28;20557;-70
2021/03/18 00:17:49;;;;;;;20.87;8.63;;;1.20;99.90;;;;;;5046013;28;20099;-70
2021/03/18 00:20:18;;;;;;;20.87;8.90;;;1.10;99.90;;;;;;5049461;28;20056;-70
2021/03/18 00:22:45;;;;;;;26.70;10.70;;;1.10;99.90;;;;;;5047222;28;20398;-71
2021/03/18 00:25:14;;;;;;;24.47;10.93;;;1.10;99.90;;;;;;5041531;28;20052;-70
2021/03/18 00:27:42;;;;;;;21.70;9.57;;;1.20;99.90;;;;;;5037267;28;20159;-70
2021/03/18 00:30:11;;;;;;;21.17;9.27;;;1.20;99.90;;;;;;5037592;28;20083;-71
2021/03/18 00:32:39;;;;;;;17.97;9.07;;;1.30;99.90;;;;;;5035712;28;20535;-71
2021/03/18 00:35:09;;;;;;;20.70;9.57;;;1.40;99.90;;;;;;5036819;28;20072;-71
2021/03/18 00:37:36;;;;;;;20.00;9.63;;;1.40;99.90;;;;;;5037252;28;20481;-70
2021/03/18 00:40:06;;;;;;;19.93;8.83;;;1.50;99.90;;;;;;5035660;28;20048;-70
2021/03/18 00:42:32;;;;;;;16.67;8.47;;;1.60;99.90;;;;;;5034434;28;20072;-70
2021/03/18 00:44:59;;;;;;;18.80;9.00;;;1.60;99.90;;;;;;5036984;28;20131;-70
2021/03/18 00:47:25;;;;;;;20.57;9.47;;;1.80;99.90;;;;;;5037719;28;20050;-70
2021/03/18 00:49:53;;;;;;;21.07;10.07;;;1.80;99.90;;;;;;5037173;28;20076;-71
2021/03/18 00:52:19;;;;;;;19.10;9.13;;;1.80;99.90;;;;;;5035837;28;20055;-70
2021/03/18 00:54:46;;;;;;;18.23;9.40;;;1.80;99.90;;;;;;5036857;28;20068;-70
2021/03/18 00:57:12;;;;;;;19.80;9.37;;;1.80;99.90;;;;;;5036563;28;20072;-71
2021/03/18 00:59:39;;;;;;;21.53;8.93;;;1.80;99.90;;;;;;5036589;28;20084;-70
2021/03/18 01:02:05;;;;;;;19.07;10.03;;;1.80;99.90;;;;;;5037685;28;20051;-70
2021/03/18 01:04:32;;;;;;;16.40;9.07;;;1.80;99.90;;;;;;5038905;28;20586;-70
2021/03/18 01:06:59;;;;;;;16.37;9.70;;;1.90;99.90;;;;;;5039009;28;20084;-71
2021/03/18 01:09:25;;;;;;;18.17;9.83;;;1.90;99.90;;;;;;5039996;28;20135;-71
2021/03/18 01:11:52;;;;;;;18.23;10.10;;;1.90;99.90;;;;;;5039506;28;20087;-70
2021/03/18 01:14:18;;;;;;;20.07;10.20;;;1.90;99.90;;;;;;5038374;28;21719;-71
2021/03/18 01:16:47;;;;;;;22.00;10.63;;;1.90;99.90;;;;;;5039098;28;20052;-70
2021/03/18 01:19:15;;;;;;;21.73;10.70;;;1.90;99.90;;;;;;5041246;28;20083;-70
2021/03/18 01:21:45;;;;;;;20.00;10.27;;;2.00;99.90;;;;;;5041156;28;20045;-71
2021/03/18 01:24:14;;;;;;;20.07;10.57;;;2.10;99.90;;;;;;5038208;28;20490;-71
2021/03/18 01:26:41;;;;;;;22.93;12.23;;;2.10;99.90;;;;;;5040648;28;20732;-71
2021/03/18 01:29:09;;;;;;;18.70;9.87;;;2.10;99.90;;;;;;5040652;28;20044;-70
2021/03/18 01:31:36;;;;;;;19.27;10.40;;;2.10;99.90;;;;;;5038419;28;20461;-71
2021/03/18 01:34:03;;;;;;;20.30;11.03;;;2.20;99.90;;;;;;5034561;28;20060;-71
2021/03/18 01:36:30;;;;;;;20.80;9.40;;;2.20;99.90;;;;;;5034069;28;20076;-71
2021/03/18 01:38:57;;;;;;;17.53;9.60;;;2.20;99.90;;;;;;5038265;28;20135;-70
2021/03/18 01:41:26;;;;;;;17.80;9.60;;;2.20;99.90;;;;;;5039639;28;20139;-70
2021/03/18 01:43:53;;;;;;;22.90;9.87;;;2.20;99.90;;;;;;5038919;28;20048;-70
2021/03/18 01:46:20;;;;;;;21.60;10.17;;;2.20;99.90;;;;;;5038828;28;20076;-70
2021/03/18 01:48:47;;;;;;;21.03;10.87;;;2.20;99.90;;;;;;5040514;28;20091;-70
2021/03/18 01:51:15;;;;;;;23.30;10.57;;;2.20;99.90;;;;;;5037838;28;20079;-71
2021/03/18 01:53:42;;;;;;;21.77;10.90;;;2.10;99.90;;;;;;5038547;28;20044;-70
2021/03/18 01:56:09;;;;;;;21.57;9.30;;;2.10;99.90;;;;;;5039023;28;20111;-70
2021/03/18 01:58:37;;;;;;;19.33;10.60;;;2.10;99.90;;;;;;5037564;28;20048;-70
2021/03/18 02:01:07;;;;;;;23.13;10.07;;;2.10;99.90;;;;;;5037282;28;20189;-70
2021/03/18 02:03:34;;;;;;;23.37;9.93;;;2.10;99.90;;;;;;5038042;28;21079;-70
2021/03/18 02:06:00;;;;;;;24.23;10.97;;;2.10;99.90;;;;;;5038743;28;20106;-70
2021/03/18 02:08:27;;;;;;;22.27;10.27;;;2.10;99.90;;;;;;5038634;28;20513;-70
2021/03/18 02:10:53;;;;;;;21.33;9.83;;;2.20;99.90;;;;;;5039660;28;20079;-71
2021/03/18 02:13:21;;;;;;;22.40;10.00;;;2.20;99.90;;;;;;5037974;28;20052;-70
2021/03/18 02:15:52;;;;;;;18.73;9.10;;;2.10;99.90;;;;;;5052599;28;20422;-70
2021/03/18 02:18:27;;;;;;;19.37;9.97;;;2.20;99.90;;;;;;5052715;28;20049;-71
2021/03/18 02:21:29;;;;;;;19.43;9.70;;;2.20;99.90;;;;;;5054310;28;20049;-71
2021/03/18 02:24:18;;;;;;;20.47;11.10;;;2.10;99.90;;;;;;5051915;28;20078;-71
2021/03/18 02:27:23;;;;;;;15.20;9.03;;;2.10;99.90;;;;;;5047900;28;20097;-70
2021/03/18 02:30:26;;;;;;;21.23;9.73;;;2.00;99.90;;;;;;5030366;28;20063;-71
2021/03/18 02:33:29;;;;;;;17.47;8.80;;;2.00;99.90;;;;;;5038486;28;20048;-70
2021/03/18 02:36:02;;;;;;;18.07;9.50;;;2.00;99.90;;;;;;5040228;28;20059;-70
2021/03/18 02:38:31;;;;;;;23.40;9.97;;;2.00;99.90;;;;;;5041006;28;20048;-70
2021/03/18 02:41:02;;;;;;;20.80;9.60;;;2.00;99.90;;;;;;5041041;28;20087;-70
2021/03/18 02:43:31;;;;;;;22.23;10.40;;;2.00;99.90;;;;;;5039680;28;20052;-70
2021/03/18 02:46:01;;;;;;;21.03;9.83;;;2.00;99.90;;;;;;5040590;28;21569;-70
2021/03/18 02:48:31;;;;;;;19.93;10.30;;;1.90;99.90;;;;;;5040387;28;20148;-70
2021/03/18 02:50:59;;;;;;;21.60;10.43;;;1.70;99.90;;;;;;5040505;28;20604;-71
2021/03/18 02:53:28;;;;;;;19.27;10.30;;;1.60;99.90;;;;;;5039679;28;20059;-70
2021/03/18 02:55:57;;;;;;;20.07;9.27;;;1.50;99.90;;;;;;5038827;28;20084;-70
2021/03/18 02:58:27;;;;;;;19.17;10.00;;;1.50;99.90;;;;;;5039719;28;20083;-70
2021/03/18 03:00:57;;;;;;;22.37;11.37;;;1.50;99.90;;;;;;5039933;28;20420;-70
2021/03/18 03:03:25;;;;;;;28.07;10.57;;;1.60;99.90;;;;;;5038181;28;20084;-70
2021/03/18 03:05:54;;;;;;;24.97;10.43;;;1.60;99.90;;;;;;5038912;28;20129;-71
2021/03/18 03:08:25;;;;;;;21.03;9.40;;;1.60;99.90;;;;;;5045811;28;20075;-71
2021/03/18 03:10:54;;;;;;;21.57;10.43;;;1.60;99.90;;;;;;5048711;28;20048;-71
2021/03/18 03:13:22;;;;;;;22.03;10.33;;;1.60;99.90;;;;;;5045789;28;20055;-70
2021/03/18 03:15:50;;;;;;;23.70;11.87;;;1.50;99.90;;;;;;5049889;28;20068;-71
2021/03/18 03:18:18;;;;;;;25.27;11.10;;;1.50;99.90;;;;;;5049082;28;20056;-71
2021/03/18 03:20:45;;;;;;;22.93;10.60;;;1.40;99.90;;;;;;5047792;28;20059;-71
2021/03/18 03:23:12;;;;;;;21.70;10.43;;;1.50;99.90;;;;;;5044340;28;20048;-71
2021/03/18 03:25:41;;;;;;;23.63;11.87;;;1.50;99.90;;;;;;5048081;28;20055;-71
2021/03/18 03:28:10;;;;;;;22.80;11.30;;;1.50;99.90;;;;;;5049908;28;20052;-70
2021/03/18 03:30:37;;;;;;;17.77;9.53;;;1.60;99.90;;;;;;5043717;28;20488;-70
2021/03/18 03:33:05;;;;;;;21.53;9.80;;;1.50;99.90;;;;;;5037816;28;20513;-70
2021/03/18 03:35:32;;;;;;;23.27;10.83;;;1.50;99.90;;;;;;5038831;28;20421;-70
2021/03/18 03:37:59;;;;;;;20.40;9.57;;;1.50;99.90;;;;;;5038416;28;20056;-70
2021/03/18 03:40:25;;;;;;;20.43;10.67;;;1.60;99.90;;;;;;5037438;28;20063;-70
2021/03/18 03:42:53;;;;;;;19.30;10.10;;;1.60;99.90;;;;;;5039517;28;20053;-70
2021/03/18 03:45:19;;;;;;;23.40;10.37;;;1.60;99.90;;;;;;5037767;28;20044;-70
2021/03/18 03:47:47;;;;;;;20.77;10.17;;;1.60;99.90;;;;;;5039326;28;20132;-70
2021/03/18 03:50:16;;;;;;;23.03;11.00;;;1.60;99.90;;;;;;5038733;28;20556;-70
2021/03/18 03:52:54;;;;;;;24.10;11.07;;;1.60;99.90;;;;;;5036705;28;20083;-70
2021/03/18 03:55:34;;;;;;;29.80;11.67;;;1.60;99.90;;;;;;5040781;28;20187;-70
2021/03/18 03:58:07;;;;;;;25.00;11.40;;;1.60;99.90;;;;;;5040327;28;20080;-70
2021/03/18 04:00:36;;;;;;;20.97;9.90;;;1.50;99.90;;;;;;5038901;28;20098;-70
2021/03/18 04:03:06;;;;;;;24.00;10.77;;;1.60;99.90;;;;;;5037913;28;20080;-70
2021/03/18 04:05:35;;;;;;;26.60;12.13;;;1.60;99.90;;;;;;5039189;28;20056;-70
2021/03/18 04:08:06;;;;;;;23.00;11.93;;;1.50;99.90;;;;;;5038707;28;20059;-70
2021/03/18 04:10:35;;;;;;;26.23;11.17;;;1.40;99.90;;;;;;5038199;28;20569;-70
2021/03/18 04:13:03;;;;;;;28.30;12.60;;;1.50;99.90;;;;;;5036700;28;20084;-70
2021/03/18 04:15:34;;;;;;;24.20;11.90;;;1.40;99.90;;;;;;5038795;28;20098;-70
2021/03/18 04:18:03;;;;;;;24.37;11.60;;;1.30;99.90;;;;;;5038675;28;20569;-70
2021/03/18 04:20:32;;;;;;;27.23;12.03;;;1.30;99.90;;;;;;5038071;28;20486;-70
2021/03/18 04:23:03;;;;;;;22.73;11.27;;;1.20;99.90;;;;;;5037022;28;20095;-71
2021/03/18 04:25:30;;;;;;;32.13;12.73;;;1.20;99.90;;;;;;5038249;28;20049;-70
2021/03/18 04:27:58;;;;;;;26.93;11.60;;;1.10;99.90;;;;;;5034516;28;20088;-70
2021/03/18 04:30:28;;;;;;;24.53;11.80;;;1.10;99.90;;;;;;5031993;28;20124;-70
2021/03/18 04:32:55;;;;;;;27.37;12.53;;;1.00;99.90;;;;;;5033201;28;20055;-70
2021/03/18 04:35:23;;;;;;;26.43;12.27;;;1.00;99.90;;;;;;5039417;28;20059;-70
2021/03/18 04:37:50;;;;;;;29.57;13.10;;;1.00;99.90;;;;;;5042762;28;20048;-70
2021/03/18 04:40:19;;;;;;;25.40;12.57;;;1.00;99.90;;;;;;5044623;28;20084;-70
2021/03/18 04:42:47;;;;;;;30.13;13.37;;;1.00;99.90;;;;;;5044698;28;20113;-70
2021/03/18 04:45:14;;;;;;;28.50;12.67;;;0.90;99.90;;;;;;5045715;28;20072;-70
2021/03/18 04:47:42;;;;;;;29.93;12.13;;;0.80;99.90;;;;;;5044089;28;20044;-70
2021/03/18 04:50:12;;;;;;;25.23;11.87;;;1.10;99.90;;;;;;5045267;28;20057;-70
2021/03/18 04:52:39;;;;;;;27.67;12.13;;;1.20;99.90;;;;;;5043209;28;20326;-70
2021/03/18 04:55:08;;;;;;;31.00;12.80;;;1.10;99.90;;;;;;5046016;28;20140;-70
2021/03/18 04:57:37;;;;;;;30.30;12.03;;;1.00;99.90;;;;;;5043732;28;20091;-70
2021/03/18 05:00:05;;;;;;;27.37;12.53;;;0.80;99.90;;;;;;5044490;28;20091;-71
2021/03/18 05:02:33;;;;;;;26.73;13.97;;;0.80;99.90;;;;;;5044775;28;20055;-70
2021/03/18 05:05:01;;;;;;;27.33;12.30;;;0.70;99.90;;;;;;5045519;28;20063;-70
2021/03/18 05:07:29;;;;;;;28.77;12.27;;;0.80;99.90;;;;;;5044382;28;20135;-70
2021/03/18 05:09:56;;;;;;;27.43;12.07;;;0.80;99.90;;;;;;5044869;28;20049;-70
2021/03/18 05:12:22;;;;;;;28.37;11.70;;;0.70;99.90;;;;;;5044562;28;20060;-70
2021/03/18 05:14:49;;;;;;;26.70;12.40;;;0.60;99.90;;;;;;5044859;28;20445;-70
2021/03/18 05:17:16;;;;;;;28.33;12.77;;;0.60;99.90;;;;;;5043188;28;20084;-70
2021/03/18 05:19:43;;;;;;;28.73;13.27;;;0.60;99.90;;;;;;5040442;28;20394;-70
2021/03/18 05:22:11;;;;;;;25.80;13.10;;;0.50;99.90;;;;;;5037353;28;20083;-70
2021/03/18 05:24:40;;;;;;;28.83;12.20;;;0.50;99.90;;;;;;5040282;28;20056;-70
2021/03/18 05:27:07;;;;;;;29.70;14.57;;;0.40;99.90;;;;;;5043588;28;20060;-70
2021/03/18 05:29:34;;;;;;;30.30;13.63;;;0.50;99.90;;;;;;5044948;28;20052;-70
2021/03/18 05:32:01;;;;;;;32.27;13.33;;;0.50;99.90;;;;;;5049349;28;20135;-70
2021/03/18 05:34:27;;;;;;;26.70;11.30;;;0.50;99.90;;;;;;5045714;28;20135;-71
2021/03/18 05:36:54;;;;;;;25.30;10.90;;;0.60;99.90;;;;;;5044947;28;20056;-70
2021/03/18 05:39:21;;;;;;;26.13;12.00;;;0.90;99.90;;;;;;5044910;28;20082;-71
2021/03/18 05:41:48;;;;;;;26.23;11.80;;;0.80;99.90;;;;;;5044519;28;20412;-70
2021/03/18 05:44:14;;;;;;;28.30;11.50;;;0.70;99.90;;;;;;5043627;28;20111;-70
2021/03/18 05:46:42;;;;;;;25.43;11.87;;;0.80;99.90;;;;;;5043638;28;20072;-70
2021/03/18 05:49:12;;;;;;;28.97;11.90;;;0.60;99.90;;;;;;5041463;28;20142;-71
2021/03/18 05:51:43;;;;;;;28.10;11.83;;;0.50;99.90;;;;;;5041858;28;20080;-71
2021/03/18 05:54:13;;;;;;;31.60;14.00;;;0.50;99.90;;;;;;5042627;28;20174;-70
2021/03/18 05:56:41;;;;;;;28.83;12.43;;;0.50;99.90;;;;;;5042571;28;20061;-70
2021/03/18 05:59:07;;;;;;;29.20;11.80;;;0.40;99.90;;;;;;5040815;28;20163;-70
2021/03/18 06:01:34;;;;;;;32.83;12.70;;;0.50;99.90;;;;;;5041496;28;20189;-71
2021/03/18 06:04:02;;;;;;;28.90;12.60;;;0.60;99.90;;;;;;5039897;28;20048;-71
2021/03/18 06:06:29;;;;;;;27.43;12.43;;;0.70;99.90;;;;;;5047448;28;20049;-71
2021/03/18 06:08:55;;;;;;;31.37;12.97;;;0.80;99.90;;;;;;5049628;28;20048;-71
2021/03/18 06:11:22;;;;;;;26.10;12.77;;;1.00;99.90;;;;;;5050126;28;20080;-71
2021/03/18 06:13:49;;;;;;;30.83;12.53;;;1.10;99.90;;;;;;5042670;28;20051;-71
2021/03/18 06:16:16;;;;;;;26.13;12.07;;;1.20;99.90;;;;;;5042142;28;21827;-71
2021/03/18 06:18:43;;;;;;;26.73;13.37;;;1.20;99.90;;;;;;5040239;28;20090;-71
2021/03/18 06:21:11;;;;;;;28.40;12.53;;;1.30;99.90;;;;;;5041299;28;20094;-71
2021/03/18 06:23:38;;;;;;;26.50;12.53;;;1.40;99.90;;;;;;5038617;28;20055;-70
2021/03/18 06:26:04;;;;;;;25.90;12.20;;;1.50;99.90;;;;;;5040125;28;20469;-71
2021/03/18 06:28:32;;;;;;;21.83;12.37;;;1.60;99.90;;;;;;5040543;28;20084;-71
2021/03/18 06:31:05;;;;;;;25.60;11.30;;;1.70;99.90;;;;;;5041333;28;20406;-71
2021/03/18 06:33:34;;;;;;;24.60;10.87;;;1.90;99.90;;;;;;5039609;28;20056;-71
2021/03/18 06:36:01;;;;;;;26.83;12.07;;;1.90;99.90;;;;;;5038526;28;20044;-70
2021/03/18 06:38:30;;;;;;;23.00;11.00;;;2.00;99.90;;;;;;5046436;28;20045;-70
2021/03/18 06:40:57;;;;;;;26.17;11.13;;;2.10;99.90;;;;;;5049147;28;20409;-70
2021/03/18 06:43:38;;;;;;;24.70;11.47;;;2.10;99.90;;;;;;5047922;28;20052;-70
2021/03/18 06:46:18;;;;;;;26.20;11.10;;;2.20;99.90;;;;;;5039600;28;20088;-70
2021/03/18 06:48:45;;;;;;;31.43;11.93;;;2.20;99.90;;;;;;5039211;28;20055;-70
2021/03/18 06:51:20;;;;;;;25.33;11.33;;;2.40;99.90;;;;;;5040850;28;20136;-70
2021/03/18 06:53:47;;;;;;;30.53;11.33;;;2.50;99.90;;;;;;5039055;28;20084;-71
2021/03/18 06:56:28;;;;;;;27.13;11.90;;;2.60;99.90;;;;;;5040191;28;20063;-70
2021/03/18 06:58:55;;;;;;;24.77;11.10;;;2.70;99.90;;;;;;5044604;28;20092;-70
2021/03/18 07:01:25;;;;;;;30.27;11.83;;;2.70;99.90;;;;;;5052103;28;20182;-71
2021/03/18 07:03:52;;;;;;;24.20;12.50;;;2.80;99.90;;;;;;5050715;28;20101;-70
2021/03/18 07:06:30;;;;;;;26.13;10.37;;;2.90;99.90;;;;;;5051919;28;20084;-71
2021/03/18 07:09:11;;;;;;;22.23;9.60;;;2.90;99.90;;;;;;5047892;28;20140;-70
2021/03/18 07:11:40;;;;;;;24.53;10.20;;;3.00;99.90;;;;;;5051327;28;20087;-70
2021/03/18 07:14:07;;;;;;;22.07;10.83;;;3.10;99.90;;;;;;5046612;28;20092;-70
2021/03/18 07:16:45;;;;;;;30.30;11.50;;;3.20;99.90;;;;;;5041530;28;20076;-71
2021/03/18 07:19:22;;;;;;;29.23;10.70;;;3.30;99.90;;;;;;5041314;28;20535;-70
2021/03/18 07:21:49;;;;;;;24.13;11.37;;;3.40;99.90;;;;;;5042083;28;20056;-70
2021/03/18 07:24:27;;;;;;;20.93;10.33;;;3.40;99.90;;;;;;5042001;28;20052;-70
2021/03/18 07:26:56;;;;;;;25.47;9.97;;;3.60;99.90;;;;;;5041945;28;20052;-70
2021/03/18 07:29:25;;;;;;;21.30;9.30;;;3.80;99.90;;;;;;5041312;28;20528;-70
2021/03/18 07:31:53;;;;;;;18.63;8.70;;;4.10;99.90;;;;;;5041278;28;20052;-70
2021/03/18 07:34:20;;;;;;;18.40;9.03;;;4.20;99.90;;;;;;5041722;28;20076;-70
2021/03/18 07:36:47;;;;;;;15.67;9.33;;;4.50;99.90;;;;;;5043393;28;20056;-70
2021/03/18 07:39:14;;;;;;;17.30;8.97;;;4.70;99.90;;;;;;5041697;28;20052;-70
2021/03/18 07:41:43;;;;;;;23.00;9.53;;;4.80;99.90;;;;;;5045125;28;20054;-70
2021/03/18 07:44:09;;;;;;;20.67;9.03;;;5.00;99.90;;;;;;5041715;28;20102;-70
2021/03/18 07:46:38;;;;;;;24.93;10.10;;;5.20;99.90;;;;;;5045126;28;20955;-70
2021/03/18 07:49:12;;;;;;;20.93;9.87;;;5.40;99.90;;;;;;5047865;28;20110;-70
2021/03/18 07:51:40;;;;;;;22.13;10.13;;;5.60;99.90;;;;;;5050524;28;20090;-70
2021/03/18 07:54:07;;;;;;;23.77;10.43;;;5.80;99.90;;;;;;5049203;28;20076;-70
2021/03/18 07:56:34;;;;;;;20.43;9.00;;;5.80;99.90;;;;;;5049954;28;20086;-70
2021/03/18 07:59:07;;;;;;;17.50;7.70;;;5.90;99.90;;;;;;5050510;28;20133;-70
2021/03/18 08:01:38;;;;;;;17.07;8.37;;;6.00;99.90;;;;;;5051667;28;20052;-70
2021/03/18 08:04:08;;;;;;;18.97;9.57;;;6.10;99.90;;;;;;5046246;28;20044;-70
2021/03/18 08:06:52;;;;;;;16.52;7.53;;;6.20;99.90;;;;;;5032770;28;20473;-70
2021/03/18 08:09:50;;;;;;;14.73;7.32;;;6.30;99.90;;;;;;5049312;28;20072;-70
2021/03/18 08:12:37;;;;;;;15.05;7.55;;;6.40;99.90;;;;;;5042210;28;20798;-70
2021/03/18 08:15:26;;;;;;;16.50;7.40;;;6.40;99.90;;;;;;5047322;28;20048;-70
2021/03/18 08:17:54;;;;;;;18.48;7.63;;;6.80;99.90;;;;;;5041396;28;20053;-70
2021/03/18 08:21:01;;;;;;;14.57;6.80;;;6.90;99.90;;;;;;5050839;28;20052;-70
2021/03/18 08:23:49;;;;;;;17.45;8.07;;;6.90;99.90;;;;;;5050077;28;20132;-70
2021/03/18 08:26:43;;;;;;;13.00;7.25;;;7.40;99.90;;;;;;5048047;28;20071;-70
2021/03/18 08:29:15;;;;;;;16.13;7.65;;;8.20;99.90;;;;;;5043081;28;20513;-71
2021/03/18 08:31:48;;;;;;;12.82;7.88;;;9.30;99.90;;;;;;5044740;28;20052;-70
2021/03/18 08:34:16;;;;;;;13.23;6.90;;;10.30;99.90;;;;;;5049263;28;20123;-70
2021/03/18 08:36:55;;;;;;;14.35;7.07;;;11.40;99.90;;;;;;5044981;28;20056;-70
2021/03/18 08:39:45;;;;;;;13.65;7.18;;;12.40;99.90;;;;;;5042847;28;20052;-70
2021/03/18 08:42:35;;;;;;;14.07;7.13;;;13.60;99.90;;;;;;5046046;28;20052;-70
2021/03/18 08:45:03;;;;;;;12.43;7.50;;;14.50;99.90;;;;;;5032738;28;20071;-70
2021/03/18 08:47:36;;;;;;;12.55;7.25;;;15.00;99.90;;;;;;5047095;28;20043;-71
2021/03/18 08:50:05;;;;;;;12.90;6.57;;;15.50;98.80;;;;;;5044065;28;20045;-71
2021/03/18 08:52:40;;;;;;;12.23;6.72;;;16.10;96.30;;;;;;5046621;28;20044;-71
2021/03/18 08:55:09;;;;;;;11.77;6.07;;;16.10;93.10;;;;;;5047647;28;20484;-74
2021/03/18 08:57:36;;;;;;;10.85;6.38;;;16.80;91.10;;;;;;5046598;28;20132;-71
2021/03/18 09:00:13;;;;;;;10.45;6.95;;;16.50;89.50;;;;;;5047061;28;20510;-70
2021/03/18 09:02:40;;;;;;;10.75;6.53;;;16.90;90.10;;;;;;5042069;28;20056;-71
2021/03/18 09:05:12;;;;;;;11.35;6.82;;;15.90;88.40;;;;;;5044035;28;20056;-71
2021/03/18 09:07:39;;;;;;;10.88;6.63;;;14.50;90.80;;;;;;5045909;28;20096;-70
2021/03/18 09:10:17;;;;;;;10.57;6.68;;;13.30;91.30;;;;;;5044507;28;20052;-69
2021/03/18 09:12:50;;;;;;;11.73;7.13;;;12.20;93.70;;;;;;5038639;28;20073;-69
2021/03/18 09:15:25;;;;;;;10.00;6.43;;;12.00;95.50;;;;;;5039723;28;20053;-69
2021/03/18 09:18:00;;;;;;;11.85;6.28;;;13.10;95.50;;;;;;5040968;28;20111;-69
2021/03/18 09:20:30;;;;;;;11.90;7.00;;;13.30;95.20;;;;;;5041949;28;20076;-71
2021/03/18 09:23:12;;;;;;;11.50;6.32;;;12.40;95.60;;;;;;5043851;28;20076;-69
2021/03/18 09:25:41;;;;;;;10.32;5.90;;;13.50;94.90;;;;;;5044366;28;20093;-69
2021/03/18 09:28:10;;;;;;;11.35;5.72;;;14.70;93.40;;;;;;5045516;28;20060;-68
2021/03/18 09:30:38;;;;;;;9.75;5.25;;;15.60;90.30;;;;;;5041658;28;20497;-70
2021/03/18 09:33:18;;;;;;;9.93;5.40;;;15.90;82.40;;;;;;5040327;28;20127;-70
2021/03/18 09:35:45;;;;;;;8.93;5.57;;;15.60;83.00;;;;;;5037177;28;20056;-70
2021/03/18 09:38:18;;;;;;;8.98;5.35;;;15.20;84.70;;;;;;5041519;28;20056;-69
2021/03/18 09:40:49;;;;;;;7.75;4.57;;;14.50;83.50;;;;;;5040228;28;20480;-70
2021/03/18 09:43:17;;;;;;;9.20;4.72;;;13.60;86.30;;;;;;5039164;28;20059;-69
2021/03/18 09:45:57;;;;;;;7.47;4.40;;;14.20;85.50;;;;;;5041019;28;20064;-69
2021/03/18 09:48:25;;;;;;;7.32;4.32;;;15.60;84.10;;;;;;5032902;28;20055;-70
2021/03/18 09:50:53;;;;;;;9.15;4.55;;;16.90;80.80;;;;;;5040630;28;20053;-69
2021/03/18 09:53:20;;;;;;;8.48;4.25;;;16.50;79.10;;;;;;5049110;28;20063;-69
2021/03/18 09:55:47;;;;;;;9.95;5.07;;;15.70;77.50;;;;;;5050092;28;20052;-69
2021/03/18 09:58:15;;;;;;;8.63;4.40;;;14.70;81.60;;;;;;5050185;28;20048;-69
2021/03/18 10:00:42;;;;;;;8.15;4.07;;;12.80;78.80;;;;;;5047795;28;20056;-69
2021/03/18 10:03:09;;;;;;;6.82;3.85;;;11.90;87.20;;;;;;5051292;28;20084;-69
2021/03/18 10:05:36;;;;;;;9.35;4.18;;;11.40;88.00;;;;;;5055172;28;20044;-69
2021/03/18 10:08:04;;;;;;;6.45;3.75;;;10.90;89.00;;;;;;5068249;28;20054;-69
2021/03/18 10:10:32;;;;;;;7.63;3.88;;;10.70;87.60;;;;;;5069244;28;20138;-69
2021/03/18 10:13:00;;;;;;;9.43;3.78;;;10.00;90.70;;;;;;5047894;28;20140;-69
2021/03/18 10:15:27;;;;;;;7.90;3.63;;;9.90;92.20;;;;;;5047896;28;20083;-69
2021/03/18 10:17:55;;;;;;;7.70;3.75;;;9.50;92.20;;;;;;5044519;28;20092;-69
2021/03/18 10:20:25;;;;;;;7.30;4.03;;;9.20;93.90;;;;;;5047636;28;20045;-69
2021/03/18 10:22:59;;;;;;;8.90;4.53;;;8.50;93.60;;;;;;5047022;28;20049;-69
2021/03/18 10:25:27;;;;;;;8.80;4.10;;;9.40;94.80;;;;;;5045811;28;20048;-69
2021/03/18 10:28:01;;;;;;;9.15;4.18;;;11.50;93.20;;;;;;5046604;28;20080;-69
2021/03/18 10:30:29;;;;;;;8.30;4.32;;;11.70;89.80;;;;;;5050587;28;20091;-70
2021/03/18 10:33:12;;;;;;;8.85;4.60;;;11.30;90.10;;;;;;5040187;28;20068;-71
2021/03/18 10:35:41;;;;;;;11.30;4.60;;;11.60;91.10;;;;;;5038509;28;20044;-73
2021/03/18 10:38:10;;;;;;;10.32;4.93;;;11.30;89.50;;;;;;5037146;28;20058;-73
2021/03/18 10:40:44;;;;;;;8.70;4.30;;;10.30;92.00;;;;;;5036411;28;20060;-73
2021/03/18 10:43:24;;;;;;;8.30;4.10;;;10.40;93.90;;;;;;5039830;28;20059;-74
2021/03/18 10:45:51;;;;;;;11.25;4.82;;;10.40;93.30;;;;;;5040001;28;20064;-71
2021/03/18 10:48:21;;;;;;;7.68;4.20;;;10.10;93.10;;;;;;5038753;28;20750;-72
2021/03/18 10:50:48;;;;;;;8.63;3.95;;;9.20;93.10;;;;;;5040631;28;20053;-74
2021/03/18 10:53:15;;;;;;;6.80;3.72;;;9.20;93.70;;;;;;5038488;28;20526;-73
2021/03/18 10:55:44;;;;;;;7.85;4.25;;;9.10;93.30;;;;;;5038090;28;20056;-71
2021/03/18 10:58:17;;;;;;;10.00;3.45;;;8.90;96.20;;;;;;5037958;28;20052;-71
2021/03/18 11:00:45;;;;;;;8.85;4.07;;;8.20;95.20;;;;;;5040541;28;20056;-74
2021/03/18 11:03:13;;;;;;;13.82;5.45;;;7.50;97.90;;;;;;5036285;28;20090;-71
2021/03/18 11:05:46;;;;;;;7.75;3.95;;;7.70;99.90;;;;;;5037470;28;20052;-75
2021/03/18 11:08:14;;;;;;;9.30;4.35;;;7.60;99.90;;;;;;5039105;28;20137;-71
2021/03/18 11:10:45;;;;;;;7.82;4.03;;;7.60;99.90;;;;;;5037617;28;20048;-70
2021/03/18 11:13:17;;;;;;;8.85;4.30;;;7.60;99.90;;;;;;5036983;28;20140;-71
2021/03/18 11:15:51;;;;;;;12.45;4.70;;;7.70;99.90;;;;;;5036677;28;20067;-70
2021/03/18 11:18:19;;;;;;;9.82;4.65;;;7.60;99.90;;;;;;5040008;28;20497;-70
2021/03/18 11:20:47;;;;;;;7.85;4.10;;;7.50;99.90;;;;;;5046174;28;20061;-71
2021/03/18 11:23:14;;;;;;;8.88;3.40;;;7.50;99.90;;;;;;5044150;28;20501;-70
2021/03/18 11:25:44;;;;;;;8.63;4.28;;;7.80;99.90;;;;;;5045675;28;20062;-71
2021/03/18 11:28:14;;;;;;;6.65;3.10;;;7.80;99.90;;;;;;5043117;28;20114;-72
2021/03/18 11:30:43;;;;;;;5.43;2.70;;;8.20;99.90;;;;;;5041824;28;20561;-70
2021/03/18 11:33:15;;;;;;;5.40;2.20;;;8.30;99.90;;;;;;5042914;28;20088;-70
2021/03/18 11:35:43;;;;;;;4.82;2.60;;;8.80;99.90;;;;;;5049453;28;20087;-70
2021/03/18 11:38:10;;;;;;;4.97;2.53;;;9.30;99.90;;;;;;5047342;28;20086;-70
2021/03/18 11:40:37;;;;;;;6.95;3.13;;;9.80;99.30;;;;;;5048922;28;20083;-70
2021/03/18 11:43:04;;;;;;;8.23;3.65;;;10.10;96.40;;;;;;5048697;28;20508;-71
2021/03/18 11:45:31;;;;;;;8.48;4.00;;;10.00;97.70;;;;;;5049747;28;20044;-70
2021/03/18 11:47:58;;;;;;;8.13;4.60;;;9.90;99.10;;;;;;5048841;28;20436;-70
2021/03/18 11:50:26;;;;;;;7.10;4.00;;;10.00;98.80;;;;;;5049342;28;20448;-70
2021/03/18 11:52:52;;;;;;;6.55;3.88;;;9.80;98.80;;;;;;5047800;28;20048;-70
2021/03/18 11:55:19;;;;;;;5.32;3.00;;;9.90;98.00;;;;;;5043830;28;20289;-70
2021/03/18 11:57:47;;;;;;;6.18;2.55;;;10.20;97.00;;;;;;5044402;28;20682;-70
2021/03/18 12:00:15;;;;;;;6.55;3.05;;;10.60;96.00;;;;;;5045541;28;20576;-70
2021/03/18 12:02:41;;;;;;;5.95;2.63;;;11.10;95.20;;;;;;5045636;28;20530;-70
2021/03/18 12:05:11;;;;;;;;;;;11.30;93.80;;;;;;5046251;28;20088;-70
2021/03/18 12:07:38;;;;;;;6.65;3.30;;;11.60;93.60;;;;;;5046485;28;19924;-70
2021/03/18 12:10:06;;;;;;;6.63;3.08;;;11.70;92.90;;;;;;5046110;28;20065;-70
2021/03/18 12:12:32;;;;;;;8.52;4.32;;;12.00;93.90;;;;;;5040874;28;20044;-70
2021/03/18 12:14:58;;;;;;;;;;;12.00;92.90;;;;;;5045831;28;20488;-74
2021/03/18 12:17:25;;;;;;;7.60;4.00;;;12.10;93.00;;;;;;5033868;28;20395;-76
2021/03/18 12:19:51;;;;;;;;;;;12.00;93.10;;;;;;5035396;28;20076;-74
2021/03/18 12:22:18;;;;;;;6.20;3.42;;;12.90;94.20;;;;;;5031688;28;20404;-74
2021/03/18 12:24:45;;;;;;;6.80;3.10;;;14.50;92.60;;;;;;5036415;28;20563;-75
2021/03/18 12:27:12;;;;;;;8.38;3.03;;;15.40;88.80;;;;;;5037498;28;20048;-74
2021/03/18 12:29:38;;;;;;;4.57;2.67;;;15.80;80.70;;;;;;5037154;28;20190;-76
2021/03/18 12:32:05;;;;;;;4.65;2.70;;;16.30;70.80;;;;;;5039926;28;20082;-75
2021/03/18 12:34:32;;;;;;;5.55;2.45;;;16.20;70.10;;;;;;5035601;28;20555;-67
2021/03/18 12:36:58;;;;;;;6.00;2.72;;;17.40;67.00;;;;;;5033220;28;20100;-70
2021/03/18 12:39:25;;;;;;;4.57;2.50;;;17.20;66.00;;;;;;5027819;28;20056;-70
2021/03/18 12:41:58;;;;;;;5.40;2.42;;;17.50;63.10;;;;;;5035501;28;20596;-68
2021/03/18 12:44:25;;;;;;;4.68;2.55;;;17.90;63.50;;;;;;5042162;28;20094;-68
2021/03/18 12:46:52;;;;;;;4.75;2.33;;;17.60;63.00;;;;;;5042771;28;20133;-68
2021/03/18 12:49:19;;;;;;;6.85;2.50;;;17.30;69.40;;;;;;5041825;28;20052;-68
2021/03/18 12:51:45;;;;;;;3.60;2.20;;;17.40;69.30;;;;;;5042309;28;20056;-68
2021/03/18 12:54:12;;;;;;;4.45;2.47;;;17.90;67.00;;;;;;5043503;28;20075;-68
2021/03/18 12:56:39;;;;;;;4.57;2.00;;;17.40;63.70;;;;;;5047182;28;20054;-68